createdAt,value
2023-05-19T00:00:35.143Z,31.1
2023-05-19T00:01:37.281Z,31.1
2023-05-19T00:02:39.583Z,31.1
2023-05-19T00:03:42.219Z,31.1
2023-05-19T00:04:44.130Z,31.1
2023-05-19T00:05:46.152Z,31.2
2023-05-19T00:06:48.124Z,31.1
2023-05-19T00:07:49.783Z,31.2
2023-05-19T00:08:51.735Z,31.2
2023-05-19T00:09:53.590Z,31.2
2023-05-19T00:10:55.436Z,31.2
2023-05-19T00:11:57.134Z,31.2
2023-05-19T00:12:58.823Z,31.1
2023-05-19T00:14:00.702Z,31.1
2023-05-19T00:15:02.639Z,31.1
2023-05-19T00:16:07.555Z,31.1
2023-05-19T00:17:09.723Z,31
2023-05-19T00:18:11.609Z,31.1
2023-05-19T00:19:13.764Z,31
2023-05-19T00:20:15.975Z,31
2023-05-19T00:21:17.834Z,31
2023-05-19T00:22:19.678Z,31
2023-05-19T00:23:21.532Z,31
2023-05-19T00:24:23.369Z,31
2023-05-19T00:25:25.323Z,31
2023-05-19T00:26:27.288Z,31
2023-05-19T00:27:29.121Z,31
2023-05-19T00:28:30.921Z,31
2023-05-19T00:29:32.624Z,31
2023-05-19T00:30:34.781Z,31
2023-05-19T00:31:36.797Z,30.9
2023-05-19T00:32:38.853Z,30.9
2023-05-19T00:33:41.103Z,30.9
2023-05-19T00:34:42.987Z,30.9
2023-05-19T00:35:44.786Z,30.9
2023-05-19T00:36:46.704Z,30.9
2023-05-19T00:37:48.553Z,30.9
2023-05-19T00:38:50.504Z,30.9
2023-05-19T00:39:52.460Z,30.8
2023-05-19T00:40:54.505Z,30.8
2023-05-19T00:41:56.292Z,30.8
2023-05-19T00:42:58.008Z,30.8
2023-05-19T00:43:59.954Z,30.8
2023-05-19T00:45:01.803Z,30.8
2023-05-19T00:46:03.659Z,30.8
2023-05-19T00:47:05.651Z,30.8
2023-05-19T00:48:08.004Z,30.8
2023-05-19T00:49:12.992Z,30.8
2023-05-19T00:50:14.839Z,30.8
2023-05-19T00:51:17.042Z,30.8
2023-05-19T00:52:18.961Z,30.8
2023-05-19T00:53:20.797Z,30.8
2023-05-19T00:54:22.645Z,30.8
2023-05-19T00:55:24.520Z,30.8
2023-05-19T00:56:26.386Z,30.8
2023-05-19T00:57:28.204Z,30.8
2023-05-19T00:58:30.172Z,30.8
2023-05-19T00:59:32.313Z,30.8
2023-05-19T01:00:34.702Z,30.8
2023-05-19T01:01:37.670Z,30.8
2023-05-19T01:02:39.761Z,30.7
2023-05-19T01:03:42.257Z,30.7
2023-05-19T01:04:44.743Z,30.7
2023-05-19T01:05:46.680Z,30.7
2023-05-19T01:06:48.676Z,30.8
2023-05-19T01:07:50.494Z,30.8
2023-05-19T01:08:52.322Z,30.8
2023-05-19T01:09:54.185Z,30.7
2023-05-19T01:10:56.050Z,30.7
2023-05-19T01:11:57.892Z,30.7
2023-05-19T01:12:59.674Z,30.7
2023-05-19T01:14:01.723Z,30.7
2023-05-19T01:15:03.538Z,30.7
2023-05-19T01:16:05.430Z,30.6
2023-05-19T01:17:07.351Z,30.6
2023-05-19T01:18:09.325Z,30.6
2023-05-19T01:19:11.415Z,30.6
2023-05-19T01:20:13.413Z,30.6
2023-05-19T01:21:15.268Z,30.7
2023-05-19T01:22:17.203Z,30.7
2023-05-19T01:23:19.070Z,30.7
2023-05-19T01:24:20.922Z,30.7
2023-05-19T01:25:22.754Z,30.7
2023-05-19T01:26:24.617Z,30.7
2023-05-19T01:27:26.479Z,30.7
2023-05-19T01:28:28.287Z,30.7
2023-05-19T01:29:30.480Z,30.6
2023-05-19T01:30:32.856Z,30.6
2023-05-19T01:31:35.369Z,30.7
2023-05-19T01:32:37.427Z,30.7
2023-05-19T01:33:39.509Z,30.6
2023-05-19T01:34:41.429Z,30.7
2023-05-19T01:35:43.413Z,30.7
2023-05-19T01:36:45.269Z,30.6
2023-05-19T01:37:47.121Z,30.6
2023-05-19T01:38:48.975Z,30.6
2023-05-19T01:39:50.790Z,30.7
2023-05-19T01:40:52.680Z,30.7
2023-05-19T01:41:54.507Z,30.7
2023-05-19T01:42:58.013Z,30.7
2023-05-19T01:43:59.850Z,30.7
2023-05-19T01:45:01.653Z,30.7
2023-05-19T01:46:03.589Z,30.7
2023-05-19T01:47:05.634Z,30.7
2023-05-19T01:48:11.391Z,30.7
2023-05-19T01:49:13.309Z,30.6
2023-05-19T01:50:15.187Z,30.6
2023-05-19T01:51:17.003Z,30.6
2023-05-19T01:52:18.972Z,30.6
2023-05-19T01:53:20.920Z,30.6
2023-05-19T01:54:22.656Z,30.6
2023-05-19T01:55:24.516Z,30.6
2023-05-19T01:56:26.367Z,30.6
2023-05-19T01:57:28.199Z,30.5
2023-05-19T01:58:30.159Z,30.6
2023-05-19T01:59:31.912Z,30.5
2023-05-19T02:00:34.204Z,30.5
2023-05-19T02:01:36.952Z,30.5
2023-05-19T02:02:38.901Z,30.5
2023-05-19T02:03:41.041Z,30.5
2023-05-19T02:04:43.072Z,30.5
2023-05-19T02:05:45.186Z,30.5
2023-05-19T02:06:47.005Z,30.5
2023-05-19T02:07:49.070Z,30.5
2023-05-19T02:08:51.013Z,30.5
2023-05-19T02:09:52.968Z,30.5
2023-05-19T02:10:54.812Z,30.5
2023-05-19T02:11:56.679Z,30.5
2023-05-19T02:12:58.619Z,30.5
2023-05-19T02:14:00.872Z,30.5
2023-05-19T02:15:02.732Z,30.5
2023-05-19T02:16:04.585Z,30.5
2023-05-19T02:17:06.646Z,30.5
2023-05-19T02:18:08.412Z,30.5
2023-05-19T02:19:10.442Z,30.5
2023-05-19T02:20:12.493Z,30.5
2023-05-19T02:21:14.393Z,30.5
2023-05-19T02:22:16.200Z,30.5
2023-05-19T02:23:17.936Z,30.5
2023-05-19T02:24:19.880Z,30.5
2023-05-19T02:25:21.651Z,30.5
2023-05-19T02:26:23.580Z,30.5
2023-05-19T02:27:25.509Z,30.5
2023-05-19T02:28:27.503Z,30.5
2023-05-19T02:29:29.451Z,30.5
2023-05-19T02:30:31.840Z,30.5
2023-05-19T02:31:34.819Z,30.5
2023-05-19T02:32:36.859Z,30.5
2023-05-19T02:33:39.303Z,30.5
2023-05-19T02:34:41.156Z,30.5
2023-05-19T02:35:43.097Z,30.5
2023-05-19T02:36:44.984Z,30.5
2023-05-19T02:37:46.999Z,30.5
2023-05-19T02:38:48.848Z,30.5
2023-05-19T02:39:50.802Z,30.5
2023-05-19T02:40:52.691Z,30.4
2023-05-19T02:41:54.503Z,30.4
2023-05-19T02:42:56.218Z,30.4
2023-05-19T02:43:58.001Z,30.4
2023-05-19T02:44:59.867Z,30.5
2023-05-19T02:46:04.487Z,30.5
2023-05-19T02:47:06.534Z,30.5
2023-05-19T02:48:08.491Z,30.5
2023-05-19T02:49:10.420Z,30.5
2023-05-19T02:50:12.272Z,30.5
2023-05-19T02:51:14.226Z,30.5
2023-05-19T02:52:16.010Z,30.4
2023-05-19T02:53:17.828Z,30.4
2023-05-19T02:54:19.671Z,30.4
2023-05-19T02:55:21.440Z,30.4
2023-05-19T02:56:23.385Z,30.4
2023-05-19T02:57:25.229Z,30.4
2023-05-19T02:58:26.983Z,30.4
2023-05-19T02:59:28.849Z,30.4
2023-05-19T03:00:30.952Z,30.4
2023-05-19T03:01:33.847Z,30.4
2023-05-19T03:02:35.984Z,30.3
2023-05-19T03:03:38.378Z,30.3
2023-05-19T03:04:40.632Z,30.4
2023-05-19T03:05:42.498Z,30.3
2023-05-19T03:06:44.331Z,30.4
2023-05-19T03:07:46.211Z,30.3
2023-05-19T03:08:48.039Z,30.3
2023-05-19T03:09:49.882Z,30.3
2023-05-19T03:10:51.727Z,30.3
2023-05-19T03:11:53.470Z,30.3
2023-05-19T03:12:55.264Z,30.3
2023-05-19T03:13:57.085Z,30.4
2023-05-19T03:14:58.925Z,30.3
2023-05-19T03:16:00.890Z,30.3
2023-05-19T03:17:02.721Z,30.2
2023-05-19T03:18:04.611Z,30.2
2023-05-19T03:19:06.679Z,30.2
2023-05-19T03:20:08.794Z,30.2
2023-05-19T03:21:10.651Z,30.2
2023-05-19T03:22:12.493Z,30.3
2023-05-19T03:23:14.376Z,30.2
2023-05-19T03:24:16.261Z,30.2
2023-05-19T03:25:18.057Z,30.3
2023-05-19T03:26:19.824Z,30.3
2023-05-19T03:27:21.656Z,30.3
2023-05-19T03:28:23.697Z,30.4
2023-05-19T03:29:25.450Z,30.4
2023-05-19T03:30:27.308Z,30.3
2023-05-19T03:31:29.146Z,30.4
2023-05-19T03:32:31.170Z,30.4
2023-05-19T03:33:33.410Z,30.5
2023-05-19T03:34:35.511Z,30.6
2023-05-19T03:35:37.379Z,30.5
2023-05-19T03:36:39.157Z,30.5
2023-05-19T03:37:41.089Z,30.6
2023-05-19T03:38:43.091Z,30.5
2023-05-19T03:39:45.083Z,30.5
2023-05-19T03:40:46.923Z,30.6
2023-05-19T03:41:48.989Z,30.6
2023-05-19T03:42:50.837Z,30.5
2023-05-19T03:43:52.579Z,30.5
2023-05-19T03:44:54.424Z,30.5
2023-05-19T03:45:56.344Z,30.3
2023-05-19T03:46:58.304Z,30.2
2023-05-19T03:48:00.219Z,30.2
2023-05-19T03:49:02.244Z,30.1
2023-05-19T03:50:03.991Z,30.1
2023-05-19T03:51:05.834Z,30.1
2023-05-19T03:52:07.784Z,30.1
2023-05-19T03:53:09.648Z,29.9
2023-05-19T03:54:11.511Z,29.8
2023-05-19T03:55:13.436Z,29.7
2023-05-19T03:56:15.290Z,29.6
2023-05-19T03:57:17.241Z,29.5
2023-05-19T03:58:18.997Z,29.4
2023-05-19T03:59:20.867Z,29.6
2023-05-19T04:00:22.719Z,29.7
2023-05-19T04:01:24.545Z,29.8
2023-05-19T04:02:26.513Z,29.9
2023-05-19T04:03:28.811Z,30
2023-05-19T04:04:30.990Z,30.3
2023-05-19T04:05:32.866Z,30.3
2023-05-19T04:06:34.705Z,30.2
2023-05-19T04:07:36.474Z,30.2
2023-05-19T04:08:38.302Z,30.1
2023-05-19T04:09:40.308Z,30
2023-05-19T04:10:42.423Z,30
2023-05-19T04:11:44.274Z,29.9
2023-05-19T04:12:46.120Z,29.8
2023-05-19T04:13:48.191Z,29.6
2023-05-19T04:14:49.924Z,29.5
2023-05-19T04:15:51.906Z,29.6
2023-05-19T04:16:53.933Z,29.7
2023-05-19T04:17:58.914Z,29.8
2023-05-19T04:19:00.989Z,29.9
2023-05-19T04:20:02.861Z,29.9
2023-05-19T04:21:04.714Z,29.9
2023-05-19T04:22:06.670Z,29.9
2023-05-19T04:23:08.607Z,30
2023-05-19T04:24:10.579Z,30
2023-05-19T04:25:12.440Z,30
2023-05-19T04:26:14.440Z,29.9
2023-05-19T04:27:16.302Z,29.9
2023-05-19T04:28:18.110Z,29.8
2023-05-19T04:29:19.911Z,29.6
2023-05-19T04:30:24.756Z,29.4
2023-05-19T04:31:26.539Z,29.5
2023-05-19T04:32:28.811Z,29.4
2023-05-19T04:33:30.604Z,29.3
2023-05-19T04:34:32.552Z,29.3
2023-05-19T04:35:34.524Z,29.3
2023-05-19T04:36:36.349Z,29.3
2023-05-19T04:37:38.131Z,29.2
2023-05-19T04:38:39.869Z,29.2
2023-05-19T04:39:41.671Z,29.1
2023-05-19T04:40:43.580Z,29.2
2023-05-19T04:41:45.599Z,29.1
2023-05-19T04:42:47.555Z,29.2
2023-05-19T04:43:49.496Z,29.1
2023-05-19T04:44:51.458Z,29
2023-05-19T04:45:53.401Z,29.1
2023-05-19T04:46:55.368Z,29
2023-05-19T04:47:57.464Z,28.9
2023-05-19T04:48:59.628Z,29.1
2023-05-19T04:50:01.325Z,29
2023-05-19T04:51:03.166Z,28.9
2023-05-19T04:52:05.026Z,29
2023-05-19T04:53:06.812Z,29
2023-05-19T04:54:08.906Z,28.9
2023-05-19T04:55:11.127Z,28.9
2023-05-19T04:56:13.017Z,29
2023-05-19T04:57:14.877Z,29
2023-05-19T04:58:16.770Z,29
2023-05-19T04:59:18.479Z,29.1
2023-05-19T05:00:20.241Z,29
2023-05-19T05:01:22.212Z,29
2023-05-19T05:02:24.472Z,28.9
2023-05-19T05:03:26.969Z,29
2023-05-19T05:04:29.060Z,28.8
2023-05-19T05:05:30.934Z,28.8
2023-05-19T05:06:33.297Z,28.9
2023-05-19T05:07:35.047Z,29
2023-05-19T05:08:36.872Z,29.1
2023-05-19T05:09:38.628Z,29.1
2023-05-19T05:10:40.575Z,29.2
2023-05-19T05:11:42.450Z,29.1
2023-05-19T05:12:44.477Z,29.3
2023-05-19T05:13:46.221Z,29.3
2023-05-19T05:14:49.505Z,29.1
2023-05-19T05:15:51.482Z,29.8
2023-05-19T05:16:53.781Z,29.2
2023-05-19T05:17:56.131Z,29.1
2023-05-19T05:18:58.367Z,28.8
2023-05-19T05:20:00.611Z,28.8
2023-05-19T05:21:02.461Z,28.7
2023-05-19T05:22:04.267Z,28.6
2023-05-19T05:23:06.269Z,28.6
2023-05-19T05:24:08.125Z,28.7
2023-05-19T05:25:10.068Z,28.9
2023-05-19T05:26:12.020Z,28.9
2023-05-19T05:27:13.992Z,28.9
2023-05-19T05:28:15.919Z,28.8
2023-05-19T05:29:17.763Z,28.7
2023-05-19T05:30:19.715Z,28.7
2023-05-19T05:31:21.572Z,28.7
2023-05-19T05:32:23.426Z,28.8
2023-05-19T05:33:25.865Z,28.8
2023-05-19T05:34:27.930Z,28.9
2023-05-19T05:35:29.865Z,28.9
2023-05-19T05:36:32.449Z,28.9
2023-05-19T05:37:34.432Z,29
2023-05-19T05:38:36.620Z,28.6
2023-05-19T05:39:38.375Z,28.6
2023-05-19T05:40:40.062Z,29
2023-05-19T05:41:41.921Z,28.8
2023-05-19T05:42:44.103Z,28.8
2023-05-19T05:43:46.038Z,28.7
2023-05-19T05:44:47.832Z,28.7
2023-05-19T05:45:49.546Z,28.7
2023-05-19T05:46:51.241Z,28.8
2023-05-19T05:47:53.426Z,28.9
2023-05-19T05:48:55.509Z,28.9
2023-05-19T05:49:57.426Z,29.2
2023-05-19T05:50:59.280Z,29
2023-05-19T05:52:07.003Z,29.2
2023-05-19T05:53:08.761Z,29.2
2023-05-19T05:54:10.359Z,29.2
2023-05-19T05:55:12.032Z,29.2
2023-05-19T05:56:14.158Z,29.2
2023-05-19T05:57:16.126Z,29.3
2023-05-19T05:58:17.973Z,29.4
2023-05-19T05:59:19.928Z,29.5
2023-05-19T06:00:21.889Z,29.4
2023-05-19T06:01:24.009Z,29.4
2023-05-19T06:02:26.734Z,29.4
2023-05-19T06:03:29.084Z,29.8
2023-05-19T06:04:31.239Z,29.9
2023-05-19T06:05:33.321Z,30.1
2023-05-19T06:06:35.435Z,29.7
2023-05-19T06:07:37.080Z,29.8
2023-05-19T06:08:38.685Z,29.4
2023-05-19T06:09:40.324Z,29.2
2023-05-19T06:10:42.009Z,29.1
2023-05-19T06:11:45.511Z,29.1
2023-05-19T06:12:47.313Z,29.1
2023-05-19T06:13:49.204Z,29.1
2023-05-19T06:14:50.934Z,28.6
2023-05-19T06:15:52.773Z,28.6
2023-05-19T06:16:55.132Z,28.6
2023-05-19T06:17:57.298Z,28.7
2023-05-19T06:18:59.253Z,28.6
2023-05-19T06:20:01.163Z,28.5
2023-05-19T06:21:02.824Z,28.7
2023-05-19T06:22:04.601Z,28.7
2023-05-19T06:23:06.266Z,28.7
2023-05-19T06:24:07.916Z,28.8
2023-05-19T06:25:09.523Z,29
2023-05-19T06:26:11.259Z,29.3
2023-05-19T06:27:12.934Z,29.2
2023-05-19T06:28:14.619Z,28.9
2023-05-19T06:29:16.364Z,28.8
2023-05-19T06:30:18.127Z,28.6
2023-05-19T06:31:19.853Z,28.5
2023-05-19T06:32:21.807Z,28.4
2023-05-19T06:33:26.134Z,28.3
2023-05-19T06:34:31.460Z,28.3
2023-05-19T06:35:33.661Z,28.2
2023-05-19T06:36:35.349Z,28.1
2023-05-19T06:37:37.060Z,28
2023-05-19T06:38:38.697Z,27.8
2023-05-19T06:39:40.316Z,28
2023-05-19T06:40:41.914Z,27.8
2023-05-19T06:41:43.563Z,27.6
2023-05-19T06:42:45.620Z,27.6
2023-05-19T06:43:47.261Z,27.5
2023-05-19T06:44:48.917Z,27.9
2023-05-19T06:45:50.660Z,27.5
2023-05-19T06:46:52.466Z,27.6
2023-05-19T06:47:54.803Z,27.7
2023-05-19T06:48:56.904Z,27.4
2023-05-19T06:49:58.678Z,27.5
2023-05-19T06:51:00.549Z,27.3
2023-05-19T06:52:02.387Z,27.7
2023-05-19T06:53:04.338Z,27.4
2023-05-19T06:54:06.392Z,27.2
2023-05-19T06:55:08.355Z,27.2
2023-05-19T06:56:10.077Z,27.2
2023-05-19T06:57:12.178Z,27.6
2023-05-19T06:58:13.851Z,27.6
2023-05-19T06:59:15.522Z,27.5
2023-05-19T07:00:22.069Z,27.4
2023-05-19T07:01:33.969Z,27.3
2023-05-19T07:02:36.184Z,27
2023-05-19T07:03:38.783Z,27.1
2023-05-19T07:04:40.959Z,27.1
2023-05-19T07:05:43.352Z,27.4
2023-05-19T07:06:45.041Z,27.4
2023-05-19T07:07:47.180Z,27.6
2023-05-19T07:08:49.566Z,27.7
2023-05-19T07:09:52.791Z,27.7
2023-05-19T07:10:54.729Z,27.8
2023-05-19T07:11:56.574Z,27.8
2023-05-19T07:12:58.564Z,28.3
2023-05-19T07:14:00.590Z,28.5
2023-05-19T07:15:02.411Z,28
2023-05-19T07:16:05.706Z,28
2023-05-19T07:17:07.772Z,27.7
2023-05-19T07:18:09.883Z,27.5
2023-05-19T07:19:12.264Z,27.5
2023-05-19T07:20:14.610Z,27.4
2023-05-19T07:21:16.403Z,27.3
2023-05-19T07:22:18.871Z,27.3
2023-05-19T07:23:20.749Z,27.1
2023-05-19T07:24:22.446Z,27
2023-05-19T07:25:24.144Z,26.9
2023-05-19T07:26:25.805Z,26.9
2023-05-19T07:27:27.499Z,26.8
2023-05-19T07:28:29.199Z,26.8
2023-05-19T07:29:30.913Z,26.8
2023-05-19T07:30:33.054Z,26.7
2023-05-19T07:31:35.792Z,26.7
2023-05-19T07:32:37.994Z,26.5
2023-05-19T07:33:39.820Z,26.6
2023-05-19T07:34:41.581Z,26.4
2023-05-19T07:35:43.282Z,26.5
2023-05-19T07:36:45.036Z,26.7
2023-05-19T07:37:46.820Z,26.5
2023-05-19T07:38:48.897Z,26.4
2023-05-19T07:39:50.782Z,26.3
2023-05-19T07:40:52.647Z,26.4
2023-05-19T07:41:54.443Z,26.4
2023-05-19T07:42:56.247Z,26.4
2023-05-19T07:43:58.012Z,26.3
2023-05-19T07:45:00.176Z,26.4
2023-05-19T07:46:02.378Z,26.5
2023-05-19T07:47:04.213Z,26.5
2023-05-19T07:48:06.395Z,26.4
2023-05-19T07:49:08.221Z,26.3
2023-05-19T07:50:10.146Z,26.2
2023-05-19T07:51:12.094Z,26.2
2023-05-19T07:52:13.774Z,26.3
2023-05-19T07:53:15.577Z,26.4
2023-05-19T07:54:17.435Z,26.7
2023-05-19T07:55:19.334Z,26.7
2023-05-19T07:56:21.016Z,26.8
2023-05-19T07:57:23.183Z,27
2023-05-19T07:58:24.946Z,27
2023-05-19T07:59:26.803Z,27.1
2023-05-19T08:00:28.548Z,27.3
2023-05-19T08:01:30.228Z,27.5
2023-05-19T08:02:32.166Z,27.8
2023-05-19T08:03:34.783Z,27.9
2023-05-19T08:04:37.700Z,27.8
2023-05-19T08:05:40.015Z,27.9
2023-05-19T08:06:41.797Z,28
2023-05-19T08:07:43.478Z,28.2
2023-05-19T08:08:45.168Z,28.3
2023-05-19T08:09:46.846Z,28.5
2023-05-19T08:10:48.523Z,29
2023-05-19T08:11:50.284Z,28.9
2023-05-19T08:12:51.920Z,28.5
2023-05-19T08:13:53.599Z,28.4
2023-05-19T08:14:55.335Z,28.2
2023-05-19T08:15:57.198Z,28.5
2023-05-19T08:16:59.031Z,28.4
2023-05-19T08:18:00.866Z,28.5
2023-05-19T08:19:03.372Z,28.7
2023-05-19T08:20:05.115Z,28.6
2023-05-19T08:21:06.956Z,28.6
2023-05-19T08:22:08.629Z,28.6
2023-05-19T08:23:10.294Z,28.7
2023-05-19T08:24:11.944Z,28.7
2023-05-19T08:25:13.648Z,28.8
2023-05-19T08:26:15.392Z,28.8
2023-05-19T08:27:17.082Z,28.8
2023-05-19T08:28:18.765Z,28.7
2023-05-19T08:29:20.512Z,28.6
2023-05-19T08:30:22.209Z,28.3
2023-05-19T08:31:24.449Z,28.3
2023-05-19T08:32:26.628Z,28.1
2023-05-19T08:33:28.496Z,28
2023-05-19T08:34:30.300Z,28
2023-05-19T08:35:31.927Z,28.2
2023-05-19T08:36:33.539Z,28.1
2023-05-19T08:37:35.327Z,28
2023-05-19T08:38:36.972Z,27.9
2023-05-19T08:39:38.603Z,27.8
2023-05-19T08:40:40.273Z,27.7
2023-05-19T08:41:41.967Z,27.8
2023-05-19T08:42:43.680Z,27.8
2023-05-19T08:43:45.352Z,27.8
2023-05-19T08:44:47.021Z,27.5
2023-05-19T08:45:48.773Z,27.6
2023-05-19T08:46:50.532Z,27.5
2023-05-19T08:47:52.451Z,27.4
2023-05-19T08:48:54.875Z,27.3
2023-05-19T08:49:56.742Z,27.3
2023-05-19T08:50:58.368Z,27.3
2023-05-19T08:52:00.014Z,27.2
2023-05-19T08:53:01.734Z,27.2
2023-05-19T08:54:03.438Z,27.1
2023-05-19T08:55:05.158Z,27.2
2023-05-19T08:56:06.773Z,27.2
2023-05-19T08:57:08.667Z,27.1
2023-05-19T08:58:10.460Z,27.1
2023-05-19T08:59:12.130Z,27.1
2023-05-19T09:00:13.703Z,27.1
2023-05-19T09:01:15.452Z,27.1
2023-05-19T09:02:17.204Z,27
2023-05-19T09:03:24.291Z,27.1
2023-05-19T09:04:29.782Z,27
2023-05-19T09:05:33.112Z,27
2023-05-19T09:06:36.005Z,26.9
2023-05-19T09:07:37.631Z,27.1
2023-05-19T09:08:39.300Z,27.4
2023-05-19T09:09:40.987Z,27.4
2023-05-19T09:10:42.722Z,27.4
2023-05-19T09:11:44.324Z,27.4
2023-05-19T09:12:45.964Z,27.4
2023-05-19T09:13:47.582Z,27.4
2023-05-19T09:14:49.463Z,27.4
2023-05-19T09:15:53.853Z,27.6
2023-05-19T09:16:55.854Z,27.8
2023-05-19T09:17:58.210Z,27.8
2023-05-19T09:19:00.739Z,28.1
2023-05-19T09:20:04.015Z,28.4
2023-05-19T09:21:06.052Z,28.3
2023-05-19T09:22:07.991Z,28.6
2023-05-19T09:23:09.870Z,28.7
2023-05-19T09:24:11.920Z,28.4
2023-05-19T09:25:13.667Z,28.4
2023-05-19T09:26:15.481Z,28.4
2023-05-19T09:27:17.191Z,28.3
2023-05-19T09:28:18.972Z,28.3
2023-05-19T09:29:20.864Z,28.3
2023-05-19T09:30:22.712Z,28.3
2023-05-19T09:31:24.866Z,28.4
2023-05-19T09:32:27.594Z,28.3
2023-05-19T09:33:29.919Z,28.3
2023-05-19T09:34:31.749Z,28.2
2023-05-19T09:35:34.173Z,28.2
2023-05-19T09:36:36.880Z,28.1
2023-05-19T09:37:38.833Z,28.1
2023-05-19T09:38:40.885Z,28.1
2023-05-19T09:39:42.788Z,28
2023-05-19T09:40:44.993Z,28
2023-05-19T09:41:46.765Z,28
2023-05-19T09:42:48.603Z,27.9
2023-05-19T09:43:50.308Z,27.9
2023-05-19T09:44:51.943Z,27.9
2023-05-19T09:45:53.614Z,27.9
2023-05-19T09:46:55.393Z,27.8
2023-05-19T09:47:57.524Z,27.8
2023-05-19T09:48:59.703Z,27.8
2023-05-19T09:50:01.577Z,27.7
2023-05-19T09:51:03.442Z,27.7
2023-05-19T09:52:05.347Z,27.7
2023-05-19T09:53:07.425Z,27.6
2023-05-19T09:54:09.357Z,27.7
2023-05-19T09:55:11.209Z,27.7
2023-05-19T09:56:12.894Z,27.7
2023-05-19T09:57:14.616Z,27.6
2023-05-19T09:58:16.302Z,27.7
2023-05-19T09:59:18.045Z,27.6
2023-05-19T10:00:19.700Z,27.7
2023-05-19T10:01:21.918Z,27.8
2023-05-19T10:02:24.397Z,27.7
2023-05-19T10:03:26.050Z,27.7
2023-05-19T10:04:27.934Z,28.1
2023-05-19T10:05:29.912Z,28.4
2023-05-19T10:06:31.675Z,28.5
2023-05-19T10:07:33.821Z,28.9
2023-05-19T10:08:35.710Z,29.2
2023-05-19T10:09:37.498Z,29.3
2023-05-19T10:10:39.214Z,29.2
2023-05-19T10:11:41.215Z,28.5
2023-05-19T10:12:42.876Z,28.3
2023-05-19T10:13:44.712Z,28.2
2023-05-19T10:14:46.466Z,28.4
2023-05-19T10:15:59.858Z,29.1
2023-05-19T10:17:03.498Z,28.9
2023-05-19T10:18:06.186Z,28.8
2023-05-19T10:19:08.366Z,28.7
2023-05-19T10:20:10.733Z,28.7
2023-05-19T10:21:12.428Z,28.6
2023-05-19T10:22:14.120Z,28.6
2023-05-19T10:23:15.891Z,28.6
2023-05-19T10:24:17.613Z,28.6
2023-05-19T10:25:19.322Z,28.6
2023-05-19T10:26:21.124Z,28.4
2023-05-19T10:27:22.842Z,28.4
2023-05-19T10:28:24.552Z,28.4
2023-05-19T10:29:26.251Z,28.3
2023-05-19T10:30:28.108Z,28.3
2023-05-19T10:31:29.948Z,28.2
2023-05-19T10:32:32.504Z,28.2
2023-05-19T10:33:34.805Z,28.2
2023-05-19T10:34:36.450Z,28.3
2023-05-19T10:35:38.584Z,28.1
2023-05-19T10:36:41.187Z,28.2
2023-05-19T10:37:42.877Z,28.3
2023-05-19T10:38:45.383Z,28.3
2023-05-19T10:39:47.069Z,28.1
2023-05-19T10:40:48.755Z,28
2023-05-19T10:41:50.411Z,28
2023-05-19T10:42:52.067Z,28.1
2023-05-19T10:43:53.805Z,27.9
2023-05-19T10:44:55.581Z,27.8
2023-05-19T10:45:57.566Z,27.8
2023-05-19T10:46:59.314Z,27.8
2023-05-19T10:48:01.378Z,27.8
2023-05-19T10:49:03.335Z,27.8
2023-05-19T10:50:05.127Z,27.7
2023-05-19T10:51:06.864Z,27.6
2023-05-19T10:52:08.792Z,27.6
2023-05-19T10:53:10.613Z,27.5
2023-05-19T10:54:14.596Z,27.6
2023-05-19T10:55:16.319Z,28
2023-05-19T10:56:18.271Z,28
2023-05-19T10:57:20.305Z,28.4
2023-05-19T10:58:22.133Z,28.7
2023-05-19T10:59:23.849Z,29.1
2023-05-19T11:00:25.559Z,29.4
2023-05-19T11:01:27.347Z,29.7
2023-05-19T11:02:29.239Z,30
2023-05-19T11:03:31.258Z,29.8
2023-05-19T11:04:33.073Z,29.7
2023-05-19T11:05:35.520Z,29.9
2023-05-19T11:06:37.654Z,29.5
2023-05-19T11:07:40.131Z,29.7
2023-05-19T11:08:41.878Z,29.4
2023-05-19T11:09:44.051Z,29.3
2023-05-19T11:10:45.719Z,29.2
2023-05-19T11:11:47.839Z,29.1
2023-05-19T11:12:49.498Z,29
2023-05-19T11:13:51.200Z,29
2023-05-19T11:14:52.883Z,28.7
2023-05-19T11:15:54.759Z,28.6
2023-05-19T11:16:56.626Z,28.7
2023-05-19T11:17:58.818Z,28.6
2023-05-19T11:19:00.819Z,28.5
2023-05-19T11:20:02.693Z,28.4
2023-05-19T11:21:04.476Z,28.4
2023-05-19T11:22:06.509Z,28.4
2023-05-19T11:23:08.704Z,28.3
2023-05-19T11:24:10.921Z,28.3
2023-05-19T11:25:12.694Z,28.2
2023-05-19T11:26:14.465Z,28.2
2023-05-19T11:27:16.198Z,28.2
2023-05-19T11:28:17.856Z,28
2023-05-19T11:29:20.645Z,28.1
2023-05-19T11:30:22.496Z,28
2023-05-19T11:31:24.371Z,27.9
2023-05-19T11:32:26.243Z,28
2023-05-19T11:33:28.477Z,27.9
2023-05-19T11:34:30.173Z,27.7
2023-05-19T11:35:36.174Z,27.7
2023-05-19T11:36:39.051Z,27.7
2023-05-19T11:37:40.995Z,27.7
2023-05-19T11:38:43.018Z,27.8
2023-05-19T11:39:44.708Z,27.9
2023-05-19T11:40:46.463Z,27.9
2023-05-19T11:41:48.114Z,27.9
2023-05-19T11:42:49.904Z,27.8
2023-05-19T11:43:51.689Z,27.7
2023-05-19T11:44:53.371Z,27.7
2023-05-19T11:45:55.404Z,27.7
2023-05-19T11:46:57.856Z,27.6
2023-05-19T11:48:03.388Z,27.6
2023-05-19T11:49:05.456Z,27.5
2023-05-19T11:50:07.264Z,27.6
2023-05-19T11:51:09.139Z,27.5
2023-05-19T11:52:10.812Z,27.4
2023-05-19T11:53:12.917Z,27.4
2023-05-19T11:54:14.638Z,28
2023-05-19T11:55:16.363Z,28.2
2023-05-19T11:56:18.157Z,28.7
2023-05-19T11:57:19.814Z,29.4
2023-05-19T11:58:21.537Z,29.6
2023-05-19T11:59:23.678Z,29.6
2023-05-19T12:00:25.339Z,29.9
2023-05-19T12:01:26.992Z,30
2023-05-19T12:02:28.814Z,30.2
2023-05-19T12:03:31.192Z,30.2
2023-05-19T12:04:33.362Z,30.1
2023-05-19T12:05:43.058Z,30.1
2023-05-19T12:06:47.172Z,29.9
2023-05-19T12:07:49.125Z,30
2023-05-19T12:08:50.920Z,30
2023-05-19T12:09:52.771Z,30
2023-05-19T12:10:54.749Z,30.1
2023-05-19T12:11:56.568Z,30.2
2023-05-19T12:12:58.429Z,30.2
2023-05-19T12:14:00.393Z,30.3
2023-05-19T12:15:02.400Z,30.3
2023-05-19T12:16:04.436Z,30.3
2023-05-19T12:17:06.538Z,30.3
2023-05-19T12:18:08.744Z,30.3
2023-05-19T12:19:10.967Z,30.3
2023-05-19T12:20:13.130Z,30.3
2023-05-19T12:21:14.877Z,30.3
2023-05-19T12:22:16.705Z,30.3
2023-05-19T12:23:18.637Z,30.3
2023-05-19T12:24:20.860Z,30.4
2023-05-19T12:25:22.576Z,30.3
2023-05-19T12:26:24.452Z,30.3
2023-05-19T12:27:26.383Z,30.5
2023-05-19T12:28:28.434Z,30.4
2023-05-19T12:29:30.246Z,30.5
2023-05-19T12:30:33.770Z,30.5
2023-05-19T12:31:37.725Z,30.5
2023-05-19T12:32:39.982Z,30.6
2023-05-19T12:33:41.839Z,30.6
2023-05-19T12:34:43.744Z,30.6
2023-05-19T12:35:45.406Z,30.6
2023-05-19T12:36:47.350Z,30.7
2023-05-19T12:37:49.043Z,30.7
2023-05-19T12:38:50.806Z,30.9
2023-05-19T12:39:52.972Z,30.9
2023-05-19T12:40:55.753Z,30.9
2023-05-19T12:41:57.738Z,31.1
2023-05-19T12:42:59.669Z,31.1
2023-05-19T12:44:01.509Z,31.1
2023-05-19T12:45:03.875Z,31.1
2023-05-19T12:46:06.164Z,31.1
2023-05-19T12:47:08.180Z,31.2
2023-05-19T12:48:10.282Z,31.2
2023-05-19T12:49:12.191Z,31.1
2023-05-19T12:50:14.139Z,31.2
2023-05-19T12:51:16.092Z,31.2
2023-05-19T12:52:17.958Z,31.2
2023-05-19T12:53:19.792Z,31.2
2023-05-19T12:54:23.467Z,31.3
2023-05-19T12:55:25.773Z,31.2
2023-05-19T12:56:27.725Z,31.3
2023-05-19T12:57:29.645Z,31.3
2023-05-19T12:58:31.824Z,31.4
2023-05-19T12:59:39.132Z,31.4
2023-05-19T13:00:41.271Z,31.4
2023-05-19T13:01:43.760Z,31.5
2023-05-19T13:02:46.164Z,31.6
2023-05-19T13:03:48.651Z,31.6
2023-05-19T13:04:50.985Z,31.6
2023-05-19T13:05:52.646Z,31.5
2023-05-19T13:06:54.343Z,31.5
2023-05-19T13:07:56.081Z,31.6
2023-05-19T13:08:57.846Z,31.7
2023-05-19T13:09:59.515Z,31.6
2023-05-19T13:11:01.289Z,31.7
2023-05-19T13:12:02.918Z,31.7
2023-05-19T13:13:04.642Z,31.6
2023-05-19T13:14:06.362Z,31.7
2023-05-19T13:15:07.954Z,31.7
2023-05-19T13:16:09.825Z,31.9
2023-05-19T13:17:11.655Z,31.8
2023-05-19T13:18:13.693Z,31.8
2023-05-19T13:19:26.136Z,31.8
2023-05-19T13:20:28.943Z,31.7
2023-05-19T13:21:30.573Z,31.6
2023-05-19T13:22:32.198Z,31.6
2023-05-19T13:23:33.923Z,31.6
2023-05-19T13:24:35.636Z,31.5
2023-05-19T13:25:37.239Z,31.5
2023-05-19T13:26:38.872Z,31.5
2023-05-19T13:27:40.559Z,31.5
2023-05-19T13:28:42.363Z,31.5
2023-05-19T13:29:44.087Z,31.6
2023-05-19T13:30:45.880Z,31.6
2023-05-19T13:31:47.653Z,31.6
2023-05-19T13:32:49.346Z,31.5
2023-05-19T13:33:51.099Z,31.7
2023-05-19T13:34:52.739Z,31.6
2023-05-19T13:35:54.668Z,31.1
2023-05-19T13:36:56.370Z,31
2023-05-19T13:37:58.371Z,31.2
2023-05-19T13:38:59.977Z,31.2
2023-05-19T13:40:01.776Z,31.1
2023-05-19T13:41:03.401Z,30.9
2023-05-19T13:42:05.071Z,31.1
2023-05-19T13:43:06.719Z,30.6
2023-05-19T13:44:08.382Z,30.6
2023-05-19T13:45:10.315Z,30.6
2023-05-19T13:46:12.211Z,30.6
2023-05-19T13:47:14.522Z,30.7
2023-05-19T13:48:16.512Z,30.6
2023-05-19T13:49:18.368Z,30.3
2023-05-19T13:50:20.111Z,30.4
2023-05-19T13:51:21.840Z,30.4